Time;durP1;ratioP1;P1;durP2;ratioP2;P2;SDS_P1;SDS_P2;PMS_P1;PMS_P2;Temp;Humidity;BMP_temperature;BMP_pressure;BME280_temperature;BME280_humidity;BME280_pressure;Samples;Min_cycle;Max_cycle;Signal;HPM_P1;HPM_P2
2023/11/27 00:01:30;;;;;;;7.40;3.30;;;;;;;-3.87;83.69;95973.79;108625;1270;22519;-75
2023/11/27 00:03:58;;;;;;;5.30;2.40;;;;;;;-3.89;83.60;95980.73;108673;1273;22531;-75
2023/11/27 00:06:28;;;;;;;8.70;4.00;;;;;;;-3.91;83.73;95979.69;108728;1273;22527;-75
2023/11/27 00:08:56;;;;;;;5.80;4.00;;;;;;;-3.91;83.80;95979.46;108661;1273;22542;-75
2023/11/27 00:11:25;;;;;;;7.90;3.70;;;;;;;-3.91;83.89;95982.01;108690;1273;22490;-75
2023/11/27 00:13:53;;;;;;;8.10;4.40;;;;;;;-3.90;83.86;95980.49;108669;1269;25377;-76
2023/11/27 00:16:22;;;;;;;6.50;3.70;;;;;;;-3.90;83.88;95978.98;108653;1269;22543;-75
2023/11/27 00:18:52;;;;;;;7.50;3.90;;;;;;;-3.91;83.83;95970.41;108703;1266;22521;-75
2023/11/27 00:21:20;;;;;;;7.20;3.50;;;;;;;-3.91;83.82;95974.52;108667;1273;22533;-75
2023/11/27 00:23:49;;;;;;;6.10;3.30;;;;;;;-3.88;83.79;95971.68;108655;1273;22644;-75
2023/11/27 00:26:17;;;;;;;4.50;2.60;;;;;;;-3.87;83.42;95982.51;108712;1273;24240;-75
2023/11/27 00:28:45;;;;;;;3.30;2.00;;;;;;;-3.87;83.38;95977.84;108678;1272;22540;-75
2023/11/27 00:31:13;;;;;;;8.70;3.60;;;;;;;-3.87;83.23;95978.72;108663;1273;22546;-75
2023/11/27 00:33:41;;;;;;;9.60;4.70;;;;;;;-3.87;83.09;95974.63;108695;1273;22548;-75
2023/11/27 00:36:13;;;;;;;7.80;2.90;;;;;;;-3.88;83.28;95975.02;108726;1272;22566;-75
2023/11/27 00:38:42;;;;;;;8.10;3.40;;;;;;;-3.87;83.24;95970.16;108674;1273;22518;-75
2023/11/27 00:41:14;;;;;;;6.30;3.30;;;;;;;-3.87;83.15;95976.14;108724;1266;25491;-75
2023/11/27 00:43:42;;;;;;;4.30;2.20;;;;;;;-3.87;83.28;95974.14;108701;1270;22771;-75
2023/11/27 00:46:11;;;;;;;3.70;2.50;;;;;;;-3.87;83.18;95971.27;108683;1273;24250;-75
2023/11/27 00:48:40;;;;;;;;;;;;;;;-3.86;83.14;95972.50;108703;1266;23567;-75
2023/11/27 00:51:09;;;;;;;5.10;2.90;;;;;;;-3.84;82.76;95972.97;108640;1273;22806;-75
2023/11/27 00:53:37;;;;;;;5.30;3.40;;;;;;;-3.82;82.54;95971.20;108706;1266;25555;-75
2023/11/27 00:56:08;;;;;;;5.90;2.90;;;;;;;-3.82;82.52;95970.34;108674;1273;22622;-75
2023/11/27 00:58:36;;;;;;;3.90;2.80;;;;;;;-3.82;82.37;95963.05;108669;1268;23563;-75
2023/11/27 01:01:26;;;;;;;7.00;2.80;;;;;;;-3.82;82.40;95961.70;108700;1273;22538;-75
2023/11/27 01:03:54;;;;;;;4.60;2.80;;;;;;;-3.82;82.32;95956.63;108666;1269;22533;-75
2023/11/27 01:06:23;;;;;;;4.10;2.80;;;;;;;-3.82;82.08;95954.56;108642;1266;24279;-75
2023/11/27 01:08:51;;;;;;;7.30;3.40;;;;;;;-3.82;81.81;95949.89;108686;1273;22528;-75
2023/11/27 01:11:19;;;;;;;5.20;2.80;;;;;;;-3.81;81.83;95950.14;108694;1266;25523;-75
2023/11/27 01:13:50;;;;;;;5.70;2.80;;;;;;;-3.81;81.76;95948.06;108686;1273;22539;-75
2023/11/27 01:16:18;;;;;;;6.30;3.10;;;;;;;-3.82;81.49;95949.70;108681;1270;22525;-75
2023/11/27 01:18:46;;;;;;;4.80;2.70;;;;;;;-3.83;81.49;95948.15;108597;1273;24638;-75
2023/11/27 01:21:14;;;;;;;4.80;2.40;;;;;;;-3.83;81.64;95944.09;108745;1270;22608;-75
2023/11/27 01:23:42;;;;;;;8.10;4.40;;;;;;;-3.85;81.79;95940.52;108633;1266;22653;-75
2023/11/27 01:26:11;;;;;;;9.20;4.10;;;;;;;-3.85;81.64;95938.33;108669;1269;22568;-75
2023/11/27 01:28:39;;;;;;;4.30;2.50;;;;;;;-3.87;81.77;95932.27;108733;1272;22525;-75
2023/11/27 01:31:08;;;;;;;3.50;2.00;;;;;;;-3.88;81.69;95927.98;108647;1273;24258;-75
2023/11/27 01:33:36;;;;;;;3.80;1.90;;;;;;;-3.89;81.59;95926.88;108718;1273;23300;-75
2023/11/27 01:36:06;;;;;;;6.90;3.50;;;;;;;-3.90;81.66;95925.80;108669;1273;26664;-75
2023/11/27 01:38:35;;;;;;;7.00;3.40;;;;;;;-3.92;81.55;95925.05;108692;1269;22539;-75
2023/11/27 01:41:03;;;;;;;4.70;2.40;;;;;;;-3.94;81.57;95922.98;108676;1273;25237;-75
2023/11/27 01:43:31;;;;;;;4.70;2.50;;;;;;;-3.94;81.40;95914.73;108656;1266;22612;-75
2023/11/27 01:46:23;;;;;;;8.00;4.10;;;;;;;-3.90;81.48;95915.13;108698;1273;22681;-75
2023/11/27 01:48:52;;;;;;;6.40;3.50;;;;;;;-3.91;81.45;95915.52;108717;1273;22660;-75
2023/11/27 01:51:22;;;;;;;5.30;2.70;;;;;;;-3.92;81.46;95911.55;108686;1271;22615;-75
2023/11/27 01:53:51;;;;;;;4.20;1.80;;;;;;;-3.91;81.26;95909.48;108711;1267;22535;-75
2023/11/27 01:56:21;;;;;;;5.00;3.20;;;;;;;-3.90;81.21;95902.17;108697;1266;22518;-75
2023/11/27 01:58:51;;;;;;;6.90;3.30;;;;;;;-3.90;80.94;95897.20;108704;1269;22535;-75
2023/11/27 02:01:19;;;;;;;4.30;2.60;;;;;;;-3.91;80.93;95890.10;108729;1266;23494;-75
2023/11/27 02:03:48;;;;;;;5.10;1.90;;;;;;;-3.91;80.99;95883.94;108701;1273;22534;-75
2023/11/27 02:06:17;;;;;;;5.90;3.40;;;;;;;-3.93;80.84;95876.34;108638;1273;22520;-75
2023/11/27 02:08:46;;;;;;;4.50;2.00;;;;;;;-3.94;80.92;95871.98;108725;1269;27571;-75
2023/11/27 02:11:18;;;;;;;7.70;3.90;;;;;;;-3.96;80.93;95867.09;108693;1273;24228;-75
2023/11/27 02:13:47;;;;;;;3.70;1.80;;;;;;;-3.99;80.79;95856.95;108723;1273;24222;-75
2023/11/27 02:16:16;;;;;;;3.80;1.60;;;;;;;-4.01;80.59;95857.88;108642;1273;22539;-75
2023/11/27 02:18:45;;;;;;;5.10;2.40;;;;;;;-4.02;80.47;95859.88;108680;1273;22547;-75
2023/11/27 02:21:13;;;;;;;5.60;2.20;;;;;;;-4.04;80.30;95859.30;108669;1273;22521;-75
2023/11/27 02:23:41;;;;;;;6.20;3.10;;;;;;;-4.05;80.24;95852.41;108700;1272;22524;-75
2023/11/27 02:26:10;;;;;;;5.40;2.60;;;;;;;-4.07;80.25;95850.98;108733;1273;22594;-75
2023/11/27 02:28:39;;;;;;;2.70;1.90;;;;;;;-4.08;80.07;95852.14;108711;1270;22578;-75
2023/11/27 02:31:07;;;;;;;3.80;2.10;;;;;;;-4.13;79.91;95846.05;108678;1273;22520;-75
2023/11/27 02:33:39;;;;;;;8.50;2.80;;;;;;;-4.17;79.79;95843.85;108689;1267;25421;-75
2023/11/27 02:36:08;;;;;;;4.70;2.50;;;;;;;-4.20;79.69;95846.14;108685;1274;23203;-75
2023/11/27 02:38:36;;;;;;;;;;;;;;;-4.24;79.82;95844.02;108660;1273;22511;-75
2023/11/27 02:41:07;;;;;;;2.70;1.80;;;;;;;-4.27;79.74;95841.84;108699;1273;23218;-75
2023/11/27 02:43:35;;;;;;;6.80;2.90;;;;;;;-4.29;79.93;95844.67;108711;1269;22518;-75
2023/11/27 02:46:06;;;;;;;4.10;2.30;;;;;;;-4.34;79.77;95846.42;108665;1270;22527;-75
2023/11/27 02:48:35;;;;;;;4.80;2.80;;;;;;;-4.38;79.93;95846.89;108642;1273;22523;-75
2023/11/27 02:51:05;;;;;;;4.80;3.00;;;;;;;-4.35;80.09;95845.02;108665;1273;22515;-75
2023/11/27 02:53:33;;;;;;;4.10;2.10;;;;;;;-4.38;79.95;95835.74;108698;1270;24397;-75
2023/11/27 02:56:01;;;;;;;2.40;1.70;;;;;;;-4.45;80.00;95831.70;108680;1266;22541;-75
2023/11/27 02:58:29;;;;;;;5.40;3.00;;;;;;;-4.50;79.80;95839.57;108621;1273;22529;-75
2023/11/27 03:00:58;;;;;;;5.10;3.10;;;;;;;-4.54;79.94;95842.70;108694;1273;22517;-75
2023/11/27 03:03:26;;;;;;;4.70;3.10;;;;;;;-4.55;80.12;95839.73;108691;1270;25262;-75
2023/11/27 03:05:54;;;;;;;2.90;2.00;;;;;;;-4.54;80.25;95839.96;108755;1272;22498;-75
2023/11/27 03:08:22;;;;;;;5.30;2.10;;;;;;;-4.53;80.12;95835.77;108590;1273;126742;-75
2023/11/27 03:10:50;;;;;;;5.10;2.60;;;;;;;-4.52;80.03;95833.58;108704;1273;22535;-75
2023/11/27 03:13:19;;;;;;;4.00;2.70;;;;;;;-4.51;80.09;95827.98;108649;1269;22559;-75
2023/11/27 03:15:47;;;;;;;4.30;2.60;;;;;;;-4.53;79.95;95826.39;108620;1273;22542;-75
2023/11/27 03:18:15;;;;;;;3.30;2.40;;;;;;;-4.57;79.91;95827.96;108708;1273;22520;-76
2023/11/27 03:20:43;;;;;;;3.50;1.40;;;;;;;-4.63;79.83;95827.98;108727;1273;22517;-75
2023/11/27 03:23:11;;;;;;;3.70;2.10;;;;;;;-4.67;79.65;95825.27;108651;1269;22523;-75
2023/11/27 03:25:40;;;;;;;3.80;2.40;;;;;;;-4.70;79.70;95824.73;108715;1273;22492;-75
2023/11/27 03:28:08;;;;;;;4.90;2.70;;;;;;;-4.77;79.59;95819.73;108707;1273;22536;-75
2023/11/27 03:30:37;;;;;;;3.70;2.00;;;;;;;-4.78;79.77;95818.98;108701;1273;22521;-75
2023/11/27 03:33:07;;;;;;;4.20;2.30;;;;;;;-4.78;79.68;95810.53;108694;1273;26527;-75
2023/11/27 03:35:35;;;;;;;3.40;1.90;;;;;;;-4.75;79.64;95807.12;108664;1273;22527;-75
2023/11/27 03:38:06;;;;;;;3.60;1.70;;;;;;;-4.75;79.66;95806.76;108629;1273;25218;-75
2023/11/27 03:40:35;;;;;;;2.40;1.50;;;;;;;-4.74;79.81;95809.54;108736;1273;22517;-75
2023/11/27 03:43:03;;;;;;;2.70;2.00;;;;;;;-4.69;79.83;95807.50;108709;1273;22550;-75
2023/11/27 03:45:31;;;;;;;3.60;2.10;;;;;;;-4.64;79.88;95807.01;108714;1273;22556;-75
2023/11/27 03:47:59;;;;;;;3.90;2.10;;;;;;;-4.60;79.87;95804.14;108685;1269;25281;-75
2023/11/27 03:50:27;;;;;;;4.20;2.10;;;;;;;-4.54;79.83;95798.06;108702;1266;25185;-75
2023/11/27 03:52:55;;;;;;;3.80;2.30;;;;;;;-4.51;79.87;95799.25;108660;1269;22561;-75
2023/11/27 03:55:24;;;;;;;4.60;2.30;;;;;;;-4.48;79.68;95797.77;108703;1273;24269;-75
2023/11/27 03:57:52;;;;;;;4.20;2.50;;;;;;;-4.44;79.66;95792.46;108625;1273;23068;-75
2023/11/27 04:00:21;;;;;;;2.30;1.90;;;;;;;-4.42;79.57;95795.13;108662;1273;22540;-75
2023/11/27 04:02:49;;;;;;;3.50;2.40;;;;;;;-4.41;79.75;95796.36;108613;1265;22583;-75
2023/11/27 04:05:19;;;;;;;4.70;2.70;;;;;;;-4.40;79.71;95792.38;108672;1273;22567;-75
2023/11/27 04:07:47;;;;;;;3.70;2.10;;;;;;;-4.47;79.66;95791.09;108682;1266;22534;-75
2023/11/27 04:10:17;;;;;;;3.50;1.90;;;;;;;-4.56;79.54;95791.75;108692;1272;22581;-75
2023/11/27 04:12:45;;;;;;;5.40;2.80;;;;;;;-4.62;79.46;95798.22;108689;1273;23463;-75
2023/11/27 04:15:14;;;;;;;1.90;1.30;;;;;;;-4.62;79.61;95795.79;108656;1269;27041;-75
2023/11/27 04:17:42;;;;;;;5.40;2.90;;;;;;;-4.62;79.75;95794.59;108643;1266;22539;-75
2023/11/27 04:20:11;;;;;;;2.20;1.70;;;;;;;-4.62;79.68;95794.27;108704;1272;22551;-75
2023/11/27 04:22:40;;;;;;;5.70;2.70;;;;;;;-4.61;79.68;95792.77;108731;1266;22527;-75
2023/11/27 04:25:09;;;;;;;4.90;2.30;;;;;;;-4.64;79.77;95796.23;108685;1274;22544;-75
2023/11/27 04:27:37;;;;;;;3.90;2.20;;;;;;;-4.64;79.83;95792.18;108641;1272;22555;-75
2023/11/27 04:30:08;;;;;;;3.20;2.00;;;;;;;-4.63;80.04;95793.89;108676;1266;23170;-75
2023/11/27 04:32:38;;;;;;;4.30;2.30;;;;;;;-4.60;80.08;95791.33;108687;1273;26230;-75
2023/11/27 04:35:09;;;;;;;2.50;1.90;;;;;;;-4.58;80.31;95789.81;108769;1273;22645;-75
2023/11/27 04:37:37;;;;;;;4.00;2.30;;;;;;;-4.54;80.40;95788.70;108634;1274;25816;-75
2023/11/27 04:40:10;;;;;;;2.80;2.00;;;;;;;-4.48;80.74;95783.98;108696;1266;25642;-75
2023/11/27 04:42:38;;;;;;;4.80;2.60;;;;;;;-4.43;80.70;95778.85;108729;1269;22527;-75
2023/11/27 04:45:09;;;;;;;3.30;2.60;;;;;;;-4.39;80.83;95777.64;108736;1273;22515;-75
2023/11/27 04:47:37;;;;;;;5.40;2.90;;;;;;;-4.35;80.94;95779.64;108695;1273;22740;-75
2023/11/27 04:50:07;;;;;;;3.90;2.50;;;;;;;-4.34;80.85;95790.41;108708;1267;22565;-75
2023/11/27 04:52:36;;;;;;;5.70;3.00;;;;;;;-4.36;80.87;95794.27;108710;1273;22528;-75
2023/11/27 04:55:07;;;;;;;2.90;1.50;;;;;;;-4.34;81.16;95791.09;108703;1266;22525;-75
2023/11/27 04:57:38;;;;;;;4.50;2.10;;;;;;;-4.32;81.09;95791.91;108681;1272;24580;-75
2023/11/27 05:00:12;;;;;;;4.90;1.90;;;;;;;-4.32;81.19;95798.05;108737;1273;22595;-75
2023/11/27 05:02:40;;;;;;;2.00;1.60;;;;;;;-4.34;81.29;95796.02;108729;1272;22518;-75
2023/11/27 05:05:08;;;;;;;3.50;1.90;;;;;;;-4.35;81.35;95792.13;108688;1273;22558;-75
2023/11/27 05:07:36;;;;;;;3.20;1.80;;;;;;;-4.37;81.64;95789.38;108698;1272;26133;-75
2023/11/27 05:10:14;;;;;;;5.40;2.50;;;;;;;-4.38;81.75;95789.54;108730;1273;22534;-75
2023/11/27 05:12:42;;;;;;;3.20;2.20;;;;;;;-4.40;82.14;95791.53;108670;1273;24244;-75
2023/11/27 05:15:11;;;;;;;4.10;3.10;;;;;;;-4.43;82.38;95784.98;108750;1269;22520;-75
2023/11/27 05:17:39;;;;;;;3.60;2.10;;;;;;;-4.43;82.48;95782.99;108688;1273;31640;-75
2023/11/27 05:20:10;;;;;;;4.90;3.10;;;;;;;-4.45;82.71;95778.63;108591;1273;22535;-75
2023/11/27 05:22:38;;;;;;;5.80;2.90;;;;;;;-4.45;82.92;95782.88;108812;1273;24280;-75
2023/11/27 05:25:09;;;;;;;5.30;3.20;;;;;;;-4.45;82.99;95783.08;108755;1273;22570;-75
2023/11/27 05:27:37;;;;;;;4.70;2.90;;;;;;;-4.46;83.38;95785.80;108657;1266;24202;-75
2023/11/27 05:30:08;;;;;;;4.70;3.10;;;;;;;-4.47;83.42;95783.30;108701;1266;24234;-75
2023/11/27 05:32:36;;;;;;;5.30;3.10;;;;;;;-4.49;83.41;95782.55;108744;1273;22549;-75
2023/11/27 05:35:07;;;;;;;5.40;3.30;;;;;;;-4.48;83.69;95781.27;108686;1272;25356;-75
2023/11/27 05:37:35;;;;;;;6.30;3.50;;;;;;;-4.47;83.71;95786.16;108648;1273;22543;-75
2023/11/27 05:40:07;;;;;;;6.60;3.90;;;;;;;-4.43;84.06;95790.20;108734;1273;24141;-75
2023/11/27 05:42:39;;;;;;;5.30;3.40;;;;;;;-4.40;84.15;95789.10;108706;1273;24214;-75
2023/11/27 05:45:10;;;;;;;5.00;3.00;;;;;;;-4.36;84.32;95786.23;108693;1269;23469;-75
2023/11/27 05:47:39;;;;;;;5.10;3.20;;;;;;;-4.37;84.21;95785.05;108745;1273;22603;-75
2023/11/27 05:50:08;;;;;;;;;;;;;;;-4.39;84.26;95791.05;108733;1266;25374;-75
2023/11/27 05:52:36;;;;;;;7.00;3.80;;;;;;;-4.40;84.43;95788.12;108707;1269;22536;-75
2023/11/27 05:55:06;;;;;;;5.00;3.00;;;;;;;-4.38;84.56;95787.14;108678;1273;22579;-75
2023/11/27 05:57:34;;;;;;;5.30;3.40;;;;;;;-4.37;84.52;95788.49;108630;1270;22541;-75
2023/11/27 06:00:06;;;;;;;7.70;4.40;;;;;;;-4.35;84.80;95789.55;108688;1269;22690;-75
2023/11/27 06:02:34;;;;;;;6.20;3.70;;;;;;;-4.37;84.80;95788.02;108677;1273;23022;-75
2023/11/27 06:05:04;;;;;;;7.40;5.00;;;;;;;-4.39;84.72;95786.35;108721;1273;25326;-75
2023/11/27 06:07:33;;;;;;;5.40;3.80;;;;;;;-4.40;85.01;95790.30;108632;1273;22536;-75
2023/11/27 06:10:03;;;;;;;5.50;3.90;;;;;;;-4.39;85.29;95793.12;108684;1273;25243;-75
2023/11/27 06:12:31;;;;;;;6.00;3.80;;;;;;;-4.34;85.36;95795.39;108725;1273;22527;-75
2023/11/27 06:15:00;;;;;;;4.60;3.40;;;;;;;-4.33;85.54;95793.00;108691;1273;22525;-75
2023/11/27 06:17:28;;;;;;;5.00;3.90;;;;;;;-4.33;85.43;95791.37;108717;1273;25362;-75
2023/11/27 06:19:56;;;;;;;6.30;4.10;;;;;;;-4.37;85.50;95785.98;108671;1273;22517;-75
2023/11/27 06:22:26;;;;;;;7.80;3.90;;;;;;;-4.36;85.92;95789.21;108683;1273;22507;-75
2023/11/27 06:24:54;;;;;;;6.40;3.80;;;;;;;-4.33;85.86;95790.02;108711;1269;22534;-75
2023/11/27 06:27:22;;;;;;;4.70;3.70;;;;;;;-4.32;86.06;95785.95;108712;1273;22591;-75
2023/11/27 06:29:51;;;;;;;8.00;4.10;;;;;;;-4.30;86.07;95788.23;108700;1269;22487;-75
2023/11/27 06:32:20;;;;;;;7.30;4.40;;;;;;;-4.27;86.17;95785.13;108674;1266;24095;-75
2023/11/27 06:34:49;;;;;;;7.50;4.70;;;;;;;-4.23;86.32;95784.95;108729;1269;22517;-75
2023/11/27 06:37:18;;;;;;;7.70;4.30;;;;;;;-4.19;86.39;95782.67;108715;1266;25320;-75
2023/11/27 06:39:47;;;;;;;7.00;4.40;;;;;;;-4.19;86.30;95784.29;108693;1273;22677;-75
2023/11/27 06:42:15;;;;;;;8.10;4.30;;;;;;;-4.15;86.61;95788.70;108667;1267;22537;-75
2023/11/27 06:44:43;;;;;;;7.00;4.90;;;;;;;-4.10;86.68;95792.52;108696;1273;22517;-75
2023/11/27 06:47:11;;;;;;;7.40;5.00;;;;;;;-4.06;86.73;95792.85;108659;1273;25368;-75
2023/11/27 06:49:39;;;;;;;9.10;5.50;;;;;;;-4.02;86.72;95794.38;108713;1270;22478;-75
2023/11/27 06:52:08;;;;;;;7.70;5.20;;;;;;;-3.98;86.85;95795.50;108702;1273;22540;-75
2023/11/27 06:54:36;;;;;;;7.80;5.10;;;;;;;-3.93;86.96;95796.56;108714;1273;22529;-75
2023/11/27 06:57:08;;;;;;;7.60;4.60;;;;;;;-3.90;86.97;95796.45;108687;1271;22631;-75
2023/11/27 06:59:37;;;;;;;6.90;4.30;;;;;;;-3.87;86.87;95792.70;108689;1273;22576;-75
2023/11/27 07:02:05;;;;;;;7.80;4.40;;;;;;;-3.85;86.90;95795.47;108700;1273;22524;-75
2023/11/27 07:04:34;;;;;;;8.80;4.30;;;;;;;-3.81;86.89;95796.20;108697;1269;22531;-75
2023/11/27 07:07:04;;;;;;;6.60;3.60;;;;;;;-3.77;87.17;95792.73;108753;1273;25239;-75
2023/11/27 07:09:34;;;;;;;6.20;3.90;;;;;;;-3.77;87.03;95789.19;108705;1273;22528;-75
2023/11/27 07:12:03;;;;;;;6.00;3.80;;;;;;;-3.76;87.07;95789.37;108686;1273;22533;-75
2023/11/27 07:14:31;;;;;;;4.70;3.40;;;;;;;-3.75;87.11;95794.42;108697;1266;22530;-75
2023/11/27 07:17:00;;;;;;;4.40;2.90;;;;;;;-3.73;87.21;95795.66;108673;1273;22936;-75
2023/11/27 07:19:28;;;;;;;6.20;3.60;;;;;;;-3.74;87.25;95800.56;108729;1273;25268;-75
2023/11/27 07:21:57;;;;;;;5.00;3.60;;;;;;;-3.74;87.49;95803.46;108653;1267;23070;-75
2023/11/27 07:24:26;;;;;;;6.70;4.10;;;;;;;-3.72;87.45;95801.66;108675;1273;22636;-75
2023/11/27 07:26:55;;;;;;;6.20;3.80;;;;;;;-3.70;87.71;95803.91;108676;1273;22537;-75
2023/11/27 07:29:24;;;;;;;4.50;3.30;;;;;;;-3.68;87.79;95803.98;108704;1273;25234;-75
2023/11/27 07:31:52;;;;;;;5.60;3.40;;;;;;;-3.65;87.95;95805.52;108626;1272;22541;-75
2023/11/27 07:34:22;;;;;;;6.80;3.80;;;;;;;-3.63;88.15;95802.60;108675;1272;22507;-75
2023/11/27 07:36:50;;;;;;;9.20;5.40;;;;;;;-3.61;88.34;95801.16;108692;1273;22534;-75
2023/11/27 07:39:18;;;;;;;5.50;2.90;;;;;;;-3.60;88.20;95802.14;108690;1256;25427;-75
2023/11/27 07:41:47;;;;;;;8.30;5.10;;;;;;;-3.59;88.44;95805.68;108680;1271;22528;-75
2023/11/27 07:44:15;;;;;;;5.60;3.90;;;;;;;-3.58;88.54;95805.95;108677;1273;25727;-75
2023/11/27 07:46:44;;;;;;;5.10;3.00;;;;;;;-3.57;88.58;95808.10;108663;1273;22622;-75
2023/11/27 07:49:13;;;;;;;6.10;3.90;;;;;;;-3.54;88.79;95808.30;108700;1266;22524;-75
2023/11/27 07:51:41;;;;;;;9.70;5.30;;;;;;;-3.51;88.84;95807.79;108708;1273;25409;-75
2023/11/27 07:54:10;;;;;;;7.30;4.20;;;;;;;-3.47;88.80;95805.69;108715;1267;23856;-75
2023/11/27 07:56:38;;;;;;;;;;;;;;;-3.39;88.99;95800.61;108708;1273;22517;-75
2023/11/27 07:59:06;;;;;;;8.10;4.40;;;;;;;-3.33;89.04;95800.41;108668;1272;23017;-75
2023/11/27 08:01:34;;;;;;;5.90;4.10;;;;;;;-3.27;88.97;95804.94;108652;1273;22549;-75
2023/11/27 08:04:03;;;;;;;8.50;4.90;;;;;;;-3.22;88.97;95804.95;108670;1273;22601;-75
2023/11/27 08:06:31;;;;;;;5.60;3.70;;;;;;;-3.21;88.99;95805.02;108689;1273;22523;-75
2023/11/27 08:08:59;;;;;;;8.10;5.50;;;;;;;-3.20;88.96;95806.98;108699;1260;24244;-75
2023/11/27 08:11:32;;;;;;;7.30;4.40;;;;;;;-3.18;88.91;95807.83;108702;1273;25444;-75
2023/11/27 08:14:01;;;;;;;8.80;5.10;;;;;;;-3.14;88.84;95806.00;108733;1272;24264;-75
2023/11/27 08:16:30;;;;;;;5.60;4.00;;;;;;;-3.13;88.98;95810.66;108690;1273;22538;-75
2023/11/27 08:18:59;;;;;;;7.00;4.10;;;;;;;-3.14;88.99;95815.05;108702;1272;22641;-75
2023/11/27 08:21:27;;;;;;;7.60;5.70;;;;;;;-3.13;89.06;95817.66;108670;1267;25480;-75
2023/11/27 08:23:55;;;;;;;9.10;5.10;;;;;;;-3.08;89.13;95817.88;108684;1272;22709;-75
2023/11/27 08:26:24;;;;;;;10.30;6.60;;;;;;;-3.05;89.27;95812.75;108711;1266;24135;-75
2023/11/27 08:28:53;;;;;;;10.40;6.30;;;;;;;-3.01;89.48;95815.38;108694;1273;22536;-75
2023/11/27 08:31:28;;;;;;;10.00;6.00;;;;;;;-2.97;89.45;95811.88;108688;1273;22525;-75
2023/11/27 08:33:56;;;;;;;13.60;7.40;;;;;;;-2.93;89.65;95811.94;108676;1274;22528;-75
2023/11/27 08:36:25;;;;;;;12.70;6.80;;;;;;;-2.92;89.72;95810.70;108704;1266;22484;-75
2023/11/27 08:38:53;;;;;;;7.70;5.70;;;;;;;-2.94;89.93;95807.12;108668;1274;23440;-75
2023/11/27 08:41:21;;;;;;;8.70;5.60;;;;;;;-2.95;90.27;95800.43;108725;1273;22518;-75
2023/11/27 08:43:50;;;;;;;9.70;5.90;;;;;;;-2.99;90.87;95796.17;108734;1273;25401;-75
2023/11/27 08:46:19;;;;;;;9.90;6.40;;;;;;;-3.01;91.05;95801.30;108693;1273;22518;-75
2023/11/27 08:48:48;;;;;;;12.90;7.40;;;;;;;-3.00;91.08;95796.18;108649;1273;22564;-75
2023/11/27 08:51:16;;;;;;;10.50;6.50;;;;;;;-2.96;91.07;95797.79;108650;1272;22524;-75
2023/11/27 08:53:44;;;;;;;13.40;9.10;;;;;;;-2.94;90.83;95800.42;108728;1272;22536;-75
2023/11/27 08:56:13;;;;;;;8.30;6.60;;;;;;;-2.93;90.97;95799.05;108698;1273;25261;-75
2023/11/27 08:58:41;;;;;;;15.40;7.30;;;;;;;-2.90;91.08;95797.58;108690;1273;22515;-75
2023/11/27 09:01:09;;;;;;;9.30;6.70;;;;;;;-2.84;91.30;95792.09;108689;1273;22521;-75
2023/11/27 09:03:38;;;;;;;10.60;6.30;;;;;;;-2.77;91.21;95793.63;108672;1273;25512;-75
2023/11/27 09:06:09;;;;;;;10.00;6.40;;;;;;;-2.72;91.05;95795.61;108732;1271;22546;-75
2023/11/27 09:08:42;;;;;;;12.30;7.40;;;;;;;-2.71;91.27;95792.52;108696;1273;22515;-75
2023/11/27 09:11:16;;;;;;;18.00;11.70;;;;;;;-2.68;91.06;95790.55;108696;1273;25548;-75
2023/11/27 09:13:44;;;;;;;12.90;6.50;;;;;;;-2.61;91.10;95783.23;108661;1273;22531;-75
2023/11/27 09:16:14;;;;;;;13.80;7.20;;;;;;;-2.60;90.98;95782.28;108670;1273;22565;-76
2023/11/27 09:18:43;;;;;;;15.10;8.70;;;;;;;-2.55;91.06;95780.55;108638;1273;24283;-75
2023/11/27 09:21:11;;;;;;;10.80;7.20;;;;;;;-2.47;90.84;95780.06;108665;1273;22488;-75
2023/11/27 09:23:39;;;;;;;13.00;6.60;;;;;;;-2.44;90.39;95783.82;108694;1273;24387;-75
2023/11/27 09:26:08;;;;;;;14.10;7.80;;;;;;;-2.47;89.98;95773.32;108697;1266;22552;-75
2023/11/27 09:28:36;;;;;;;14.30;8.00;;;;;;;-2.46;89.80;95779.66;108724;1273;22523;-75
2023/11/27 09:31:05;;;;;;;11.90;6.60;;;;;;;-2.40;89.58;95782.18;108696;1273;22611;-75
2023/11/27 09:33:34;;;;;;;13.70;8.70;;;;;;;-2.30;89.52;95777.80;108696;1273;22532;-75
2023/11/27 09:36:04;;;;;;;14.70;9.10;;;;;;;-2.23;89.16;95777.60;108695;1273;22592;-75
2023/11/27 09:38:32;;;;;;;13.20;9.50;;;;;;;-2.10;88.92;95778.75;108662;1273;22647;-75
2023/11/27 09:41:02;;;;;;;23.90;15.20;;;;;;;-1.99;88.70;95779.90;108687;1273;23159;-75
2023/11/27 09:43:31;;;;;;;12.10;8.70;;;;;;;-1.85;88.23;95784.71;108695;1272;22528;-75
2023/11/27 09:46:01;;;;;;;14.40;10.70;;;;;;;-1.79;87.61;95785.64;108734;1273;24211;-75
2023/11/27 09:48:29;;;;;;;12.10;8.00;;;;;;;-1.75;87.73;95785.42;108674;1273;22527;-75
2023/11/27 09:50:58;;;;;;;9.50;6.20;;;;;;;-1.87;87.15;95783.73;108679;1273;25338;-75
2023/11/27 09:53:31;;;;;;;20.10;11.80;;;;;;;-1.91;86.92;95779.83;108683;1273;25267;-75
2023/11/27 09:56:00;;;;;;;15.00;10.70;;;;;;;-1.93;86.89;95776.67;108654;1273;25401;-75
2023/11/27 09:58:28;;;;;;;20.00;11.80;;;;;;;-1.96;86.58;95774.20;108632;1273;24200;-75
2023/11/27 10:00:57;;;;;;;14.50;9.00;;;;;;;-1.98;86.56;95775.36;108669;1266;22519;-75
2023/11/27 10:03:25;;;;;;;14.80;9.20;;;;;;;-1.96;85.99;95776.83;108687;1273;22524;-75
2023/11/27 10:05:54;;;;;;;17.40;11.40;;;;;;;-1.86;86.48;95780.02;108700;1267;22606;-75
2023/11/27 10:08:26;;;;;;;13.80;9.20;;;;;;;-1.79;86.31;95770.94;108710;1273;25447;-75
2023/11/27 10:10:56;;;;;;;14.00;10.20;;;;;;;-1.88;86.13;95767.84;108696;1273;22524;-75
2023/11/27 10:13:34;;;;;;;20.00;11.90;;;;;;;-1.91;86.18;95768.61;108699;1273;22535;-75
2023/11/27 10:16:05;;;;;;;15.70;9.80;;;;;;;-1.88;86.17;95769.15;108661;1273;22487;-75
2023/11/27 10:18:33;;;;;;;15.70;9.10;;;;;;;-1.92;85.65;95764.98;108729;1273;23854;-75
2023/11/27 10:21:08;;;;;;;16.10;9.90;;;;;;;-2.03;85.25;95765.00;108711;1273;22534;-75
2023/11/27 10:23:36;;;;;;;15.70;8.50;;;;;;;-2.08;85.18;95764.77;108646;1273;22561;-75
2023/11/27 10:26:05;;;;;;;15.60;8.90;;;;;;;-2.15;84.83;95764.84;108710;1266;22528;-75
2023/11/27 10:28:41;;;;;;;18.60;12.30;;;;;;;-2.23;84.61;95766.66;108684;1267;25319;-75
2023/11/27 10:31:10;;;;;;;29.20;16.00;;;;;;;-2.21;85.13;95758.26;108698;1273;22585;-75
2023/11/27 10:33:40;;;;;;;17.70;11.40;;;;;;;-2.19;85.04;95757.94;108712;1273;24255;-75
2023/11/27 10:36:11;;;;;;;15.70;9.90;;;;;;;-2.14;85.03;95760.04;108724;1273;22691;-75
2023/11/27 10:38:43;;;;;;;22.90;11.80;;;;;;;-2.08;84.75;95762.54;108723;1273;22526;-75
2023/11/27 10:41:12;;;;;;;11.50;6.70;;;;;;;-2.13;84.26;95762.41;108670;1273;22549;-75
2023/11/27 10:43:43;;;;;;;17.10;9.40;;;;;;;-2.14;84.45;95757.99;108716;1273;22636;-75
2023/11/27 10:46:11;;;;;;;13.70;8.60;;;;;;;-2.08;84.50;95753.58;108691;1273;23749;-75
2023/11/27 10:48:42;;;;;;;12.80;7.30;;;;;;;-2.04;84.50;95746.96;108691;1273;22524;-75
2023/11/27 10:51:13;;;;;;;13.20;8.00;;;;;;;-2.09;84.06;95745.03;108745;1273;22518;-75
2023/11/27 10:53:46;;;;;;;16.80;10.00;;;;;;;-2.13;84.02;95739.81;108737;1268;22478;-75
2023/11/27 10:56:17;;;;;;;16.80;9.60;;;;;;;-2.19;83.79;95733.86;108677;1273;22528;-75
2023/11/27 10:58:47;;;;;;;20.40;12.60;;;;;;;-2.22;83.91;95731.86;108644;1269;22528;-75
2023/11/27 11:01:19;;;;;;;14.30;8.80;;;;;;;-2.25;84.05;95727.54;108705;1273;22534;-75
2023/11/27 11:03:53;;;;;;;9.10;5.30;;;;;;;-2.25;83.76;95725.09;108741;1273;22538;-75
2023/11/27 11:06:22;;;;;;;11.00;6.30;;;;;;;-2.25;83.71;95723.30;108659;1273;22576;-75
2023/11/27 11:08:51;;;;;;;13.50;8.00;;;;;;;-2.16;83.83;95723.75;108736;1260;22629;-75
2023/11/27 11:11:23;;;;;;;14.80;10.00;;;;;;;-1.85;84.63;95720.89;108624;1273;22519;-75
2023/11/27 11:13:52;;;;;;;13.20;8.40;;;;;;;-1.47;84.51;95718.72;108706;1273;22569;-76
2023/11/27 11:16:28;;;;;;;17.20;9.90;;;;;;;-1.25;84.10;95714.17;108715;1267;22623;-75
2023/11/27 11:19:05;;;;;;;13.50;8.70;;;;;;;-1.06;83.40;95711.36;108692;1273;22538;-76
2023/11/27 11:21:52;;;;;;;15.40;9.40;;;;;;;-0.89;83.21;95714.34;108695;1273;22662;-76
2023/11/27 11:24:29;;;;;;;10.80;7.40;;;;;;;-0.72;82.56;95711.16;108707;1273;26143;-76
2023/11/27 11:27:10;;;;;;;10.70;6.60;;;;;;;-0.71;81.80;95709.36;108649;1273;24226;-76
2023/11/27 11:29:43;;;;;;;11.20;6.40;;;;;;;-0.70;81.33;95704.08;108679;1270;22544;-76
2023/11/27 11:32:16;;;;;;;15.00;9.20;;;;;;;-0.63;81.31;95699.21;108694;1267;25319;-76
2023/11/27 11:34:49;;;;;;;14.40;9.50;;;;;;;-0.49;81.51;95694.64;108736;1273;22543;-76